sensor_id;sensor_type;location;lat;lon;timestamp;P1;durP1;ratioP1;P2;durP2;ratioP2
13959;SDS011;7052;51.050;3.716;2023-02-10T00:01:05;55.47;;;32.80;;
13959;SDS011;7052;51.050;3.716;2023-02-10T00:03:34;52.47;;;32.97;;
13959;SDS011;7052;51.050;3.716;2023-02-10T00:06:01;49.77;;;32.17;;
13959;SDS011;7052;51.050;3.716;2023-02-10T00:08:29;53.87;;;33.33;;
13959;SDS011;7052;51.050;3.716;2023-02-10T00:10:56;55.47;;;33.20;;
13959;SDS011;7052;51.050;3.716;2023-02-10T00:13:23;58.70;;;34.73;;
13959;SDS011;7052;51.050;3.716;2023-02-10T00:15:52;53.07;;;32.50;;
13959;SDS011;7052;51.050;3.716;2023-02-10T00:18:20;49.20;;;31.30;;
13959;SDS011;7052;51.050;3.716;2023-02-10T00:20:50;51.60;;;32.20;;
13959;SDS011;7052;51.050;3.716;2023-02-10T00:23:17;52.30;;;32.17;;
13959;SDS011;7052;51.050;3.716;2023-02-10T00:25:45;53.70;;;32.27;;
13959;SDS011;7052;51.050;3.716;2023-02-10T00:28:12;49.90;;;32.20;;
13959;SDS011;7052;51.050;3.716;2023-02-10T00:30:39;53.30;;;32.47;;
13959;SDS011;7052;51.050;3.716;2023-02-10T00:33:08;56.50;;;32.23;;
13959;SDS011;7052;51.050;3.716;2023-02-10T00:35:36;55.80;;;34.10;;
13959;SDS011;7052;51.050;3.716;2023-02-10T00:38:03;51.67;;;31.80;;
13959;SDS011;7052;51.050;3.716;2023-02-10T00:40:30;57.67;;;33.03;;
13959;SDS011;7052;51.050;3.716;2023-02-10T00:42:57;54.43;;;31.70;;
13959;SDS011;7052;51.050;3.716;2023-02-10T00:45:25;47.57;;;31.33;;
13959;SDS011;7052;51.050;3.716;2023-02-10T00:47:51;53.83;;;32.23;;
13959;SDS011;7052;51.050;3.716;2023-02-10T00:50:20;54.87;;;32.27;;
13959;SDS011;7052;51.050;3.716;2023-02-10T00:52:47;50.63;;;30.80;;
13959;SDS011;7052;51.050;3.716;2023-02-10T00:55:14;49.77;;;30.80;;
13959;SDS011;7052;51.050;3.716;2023-02-10T00:57:41;54.90;;;33.83;;
13959;SDS011;7052;51.050;3.716;2023-02-10T01:00:09;53.07;;;32.23;;
13959;SDS011;7052;51.050;3.716;2023-02-10T01:02:37;51.70;;;31.87;;
13959;SDS011;7052;51.050;3.716;2023-02-10T01:05:05;53.97;;;33.00;;
13959;SDS011;7052;51.050;3.716;2023-02-10T01:07:33;50.67;;;30.20;;
13959;SDS011;7052;51.050;3.716;2023-02-10T01:10:03;49.33;;;30.73;;
13959;SDS011;7052;51.050;3.716;2023-02-10T01:12:30;52.27;;;31.53;;
13959;SDS011;7052;51.050;3.716;2023-02-10T01:15:00;49.87;;;29.70;;
13959;SDS011;7052;51.050;3.716;2023-02-10T01:17:30;49.07;;;30.87;;
13959;SDS011;7052;51.050;3.716;2023-02-10T01:19:57;47.30;;;29.97;;
13959;SDS011;7052;51.050;3.716;2023-02-10T01:22:24;46.80;;;30.27;;
13959;SDS011;7052;51.050;3.716;2023-02-10T01:24:53;47.20;;;29.83;;
13959;SDS011;7052;51.050;3.716;2023-02-10T01:27:21;51.03;;;30.70;;
13959;SDS011;7052;51.050;3.716;2023-02-10T01:29:48;53.73;;;31.67;;
13959;SDS011;7052;51.050;3.716;2023-02-10T01:32:15;56.67;;;32.07;;
13959;SDS011;7052;51.050;3.716;2023-02-10T01:34:42;59.80;;;32.63;;
13959;SDS011;7052;51.050;3.716;2023-02-10T01:37:09;60.40;;;31.80;;
13959;SDS011;7052;51.050;3.716;2023-02-10T01:39:36;60.17;;;32.50;;
13959;SDS011;7052;51.050;3.716;2023-02-10T01:42:04;51.33;;;31.43;;
13959;SDS011;7052;51.050;3.716;2023-02-10T01:47:39;47.97;;;31.17;;
13959;SDS011;7052;51.050;3.716;2023-02-10T01:50:07;46.97;;;30.83;;
13959;SDS011;7052;51.050;3.716;2023-02-10T01:52:35;50.43;;;32.30;;
13959;SDS011;7052;51.050;3.716;2023-02-10T01:55:06;49.93;;;31.10;;
13959;SDS011;7052;51.050;3.716;2023-02-10T01:57:38;50.90;;;31.53;;
13959;SDS011;7052;51.050;3.716;2023-02-10T02:00:08;51.47;;;30.57;;
13959;SDS011;7052;51.050;3.716;2023-02-10T02:02:38;52.13;;;31.73;;
13959;SDS011;7052;51.050;3.716;2023-02-10T02:05:17;50.63;;;31.70;;
13959;SDS011;7052;51.050;3.716;2023-02-10T02:07:46;50.13;;;31.07;;
13959;SDS011;7052;51.050;3.716;2023-02-10T02:10:14;53.67;;;32.23;;
13959;SDS011;7052;51.050;3.716;2023-02-10T02:12:44;52.10;;;32.60;;
13959;SDS011;7052;51.050;3.716;2023-02-10T02:15:21;50.47;;;32.03;;
13959;SDS011;7052;51.050;3.716;2023-02-10T02:17:59;50.87;;;31.90;;
13959;SDS011;7052;51.050;3.716;2023-02-10T02:23:59;51.17;;;31.47;;
13959;SDS011;7052;51.050;3.716;2023-02-10T02:32:43;51.37;;;32.33;;
13959;SDS011;7052;51.050;3.716;2023-02-10T02:35:14;53.30;;;31.93;;
13959;SDS011;7052;51.050;3.716;2023-02-10T02:37:46;52.80;;;33.23;;
13959;SDS011;7052;51.050;3.716;2023-02-10T02:40:18;45.83;;;31.23;;
13959;SDS011;7052;51.050;3.716;2023-02-10T02:42:46;49.23;;;32.70;;
13959;SDS011;7052;51.050;3.716;2023-02-10T02:45:16;51.33;;;32.00;;
13959;SDS011;7052;51.050;3.716;2023-02-10T02:50:37;50.23;;;31.93;;
13959;SDS011;7052;51.050;3.716;2023-02-10T02:53:10;54.73;;;33.07;;
13959;SDS011;7052;51.050;3.716;2023-02-10T02:55:49;48.83;;;30.40;;
13959;SDS011;7052;51.050;3.716;2023-02-10T02:58:26;50.80;;;32.37;;
13959;SDS011;7052;51.050;3.716;2023-02-10T03:01:02;56.60;;;33.33;;
13959;SDS011;7052;51.050;3.716;2023-02-10T03:03:34;50.70;;;32.57;;
13959;SDS011;7052;51.050;3.716;2023-02-10T03:06:02;53.70;;;33.43;;
13959;SDS011;7052;51.050;3.716;2023-02-10T03:08:31;54.97;;;32.93;;
13959;SDS011;7052;51.050;3.716;2023-02-10T03:11:00;56.00;;;34.27;;
13959;SDS011;7052;51.050;3.716;2023-02-10T03:13:27;59.70;;;35.30;;
13959;SDS011;7052;51.050;3.716;2023-02-10T03:15:57;60.23;;;35.83;;
13959;SDS011;7052;51.050;3.716;2023-02-10T03:18:24;57.23;;;34.13;;
13959;SDS011;7052;51.050;3.716;2023-02-10T03:20:53;57.30;;;35.07;;
13959;SDS011;7052;51.050;3.716;2023-02-10T03:23:22;55.93;;;34.47;;
13959;SDS011;7052;51.050;3.716;2023-02-10T03:25:51;57.40;;;34.93;;
13959;SDS011;7052;51.050;3.716;2023-02-10T03:28:18;57.40;;;34.37;;
13959;SDS011;7052;51.050;3.716;2023-02-10T03:30:46;57.40;;;35.17;;
13959;SDS011;7052;51.050;3.716;2023-02-10T03:33:17;60.07;;;35.23;;
13959;SDS011;7052;51.050;3.716;2023-02-10T03:35:45;57.50;;;35.60;;
13959;SDS011;7052;51.050;3.716;2023-02-10T03:38:13;56.90;;;35.20;;
13959;SDS011;7052;51.050;3.716;2023-02-10T03:40:41;56.97;;;34.77;;
13959;SDS011;7052;51.050;3.716;2023-02-10T03:43:08;56.50;;;34.63;;
13959;SDS011;7052;51.050;3.716;2023-02-10T03:45:37;55.40;;;34.57;;
13959;SDS011;7052;51.050;3.716;2023-02-10T03:48:05;55.03;;;34.87;;
13959;SDS011;7052;51.050;3.716;2023-02-10T03:50:32;59.93;;;35.67;;
13959;SDS011;7052;51.050;3.716;2023-02-10T03:52:59;59.63;;;35.33;;
13959;SDS011;7052;51.050;3.716;2023-02-10T03:55:28;56.20;;;35.60;;
13959;SDS011;7052;51.050;3.716;2023-02-10T03:57:57;60.10;;;36.40;;
13959;SDS011;7052;51.050;3.716;2023-02-10T04:00:26;63.63;;;37.83;;
13959;SDS011;7052;51.050;3.716;2023-02-10T04:02:53;58.00;;;35.70;;
13959;SDS011;7052;51.050;3.716;2023-02-10T04:05:21;61.80;;;37.27;;
13959;SDS011;7052;51.050;3.716;2023-02-10T04:07:48;59.57;;;36.33;;
13959;SDS011;7052;51.050;3.716;2023-02-10T04:10:16;59.10;;;36.30;;
13959;SDS011;7052;51.050;3.716;2023-02-10T04:12:46;56.47;;;36.33;;
13959;SDS011;7052;51.050;3.716;2023-02-10T04:15:15;55.97;;;35.73;;
13959;SDS011;7052;51.050;3.716;2023-02-10T04:17:42;56.23;;;33.00;;
13959;SDS011;7052;51.050;3.716;2023-02-10T04:20:09;55.50;;;35.73;;
13959;SDS011;7052;51.050;3.716;2023-02-10T04:22:37;55.17;;;35.13;;
13959;SDS011;7052;51.050;3.716;2023-02-10T04:25:04;56.70;;;35.23;;
13959;SDS011;7052;51.050;3.716;2023-02-10T04:27:32;55.47;;;33.33;;
13959;SDS011;7052;51.050;3.716;2023-02-10T04:30:02;56.40;;;34.53;;
13959;SDS011;7052;51.050;3.716;2023-02-10T04:32:29;54.57;;;34.83;;
13959;SDS011;7052;51.050;3.716;2023-02-10T04:34:56;51.03;;;33.67;;
13959;SDS011;7052;51.050;3.716;2023-02-10T04:37:23;61.13;;;35.10;;
13959;SDS011;7052;51.050;3.716;2023-02-10T04:39:50;56.03;;;35.33;;
13959;SDS011;7052;51.050;3.716;2023-02-10T04:42:16;54.80;;;34.93;;
13959;SDS011;7052;51.050;3.716;2023-02-10T04:44:45;61.40;;;35.43;;
13959;SDS011;7052;51.050;3.716;2023-02-10T04:47:13;53.80;;;33.93;;
13959;SDS011;7052;51.050;3.716;2023-02-10T04:49:42;54.60;;;34.13;;
13959;SDS011;7052;51.050;3.716;2023-02-10T04:52:09;52.70;;;33.03;;
13959;SDS011;7052;51.050;3.716;2023-02-10T04:54:38;58.50;;;35.17;;
13959;SDS011;7052;51.050;3.716;2023-02-10T04:57:06;51.63;;;33.50;;
13959;SDS011;7052;51.050;3.716;2023-02-10T04:59:33;58.30;;;36.33;;
13959;SDS011;7052;51.050;3.716;2023-02-10T05:02:00;60.17;;;36.07;;
13959;SDS011;7052;51.050;3.716;2023-02-10T05:04:30;57.57;;;35.10;;
13959;SDS011;7052;51.050;3.716;2023-02-10T05:06:57;62.50;;;36.87;;
13959;SDS011;7052;51.050;3.716;2023-02-10T05:09:24;53.83;;;34.60;;
13959;SDS011;7052;51.050;3.716;2023-02-10T05:11:52;58.17;;;35.40;;
13959;SDS011;7052;51.050;3.716;2023-02-10T05:14:19;58.77;;;35.43;;
13959;SDS011;7052;51.050;3.716;2023-02-10T05:16:46;55.57;;;34.27;;
13959;SDS011;7052;51.050;3.716;2023-02-10T05:19:14;55.90;;;34.20;;
13959;SDS011;7052;51.050;3.716;2023-02-10T05:21:44;59.17;;;35.80;;
13959;SDS011;7052;51.050;3.716;2023-02-10T05:24:11;57.73;;;36.60;;
13959;SDS011;7052;51.050;3.716;2023-02-10T05:26:38;60.83;;;36.03;;
13959;SDS011;7052;51.050;3.716;2023-02-10T05:29:05;56.73;;;34.70;;
13959;SDS011;7052;51.050;3.716;2023-02-10T05:31:32;59.93;;;35.53;;
13959;SDS011;7052;51.050;3.716;2023-02-10T05:34:00;58.33;;;36.37;;
13959;SDS011;7052;51.050;3.716;2023-02-10T05:36:27;59.90;;;35.37;;
13959;SDS011;7052;51.050;3.716;2023-02-10T05:38:55;61.73;;;37.40;;
13959;SDS011;7052;51.050;3.716;2023-02-10T05:41:40;55.67;;;35.50;;
13959;SDS011;7052;51.050;3.716;2023-02-10T05:44:07;56.50;;;35.23;;
13959;SDS011;7052;51.050;3.716;2023-02-10T05:46:34;61.57;;;37.87;;
13959;SDS011;7052;51.050;3.716;2023-02-10T05:49:01;61.80;;;37.07;;
13959;SDS011;7052;51.050;3.716;2023-02-10T05:51:28;56.57;;;36.33;;
13959;SDS011;7052;51.050;3.716;2023-02-10T05:53:57;55.43;;;37.23;;
13959;SDS011;7052;51.050;3.716;2023-02-10T05:56:23;56.53;;;36.90;;
13959;SDS011;7052;51.050;3.716;2023-02-10T05:58:50;57.90;;;36.23;;
13959;SDS011;7052;51.050;3.716;2023-02-10T06:01:19;56.40;;;35.73;;
13959;SDS011;7052;51.050;3.716;2023-02-10T06:03:47;58.83;;;36.20;;
13959;SDS011;7052;51.050;3.716;2023-02-10T06:06:14;59.33;;;35.80;;
13959;SDS011;7052;51.050;3.716;2023-02-10T06:08:42;60.17;;;35.67;;
13959;SDS011;7052;51.050;3.716;2023-02-10T06:11:10;58.47;;;37.03;;
13959;SDS011;7052;51.050;3.716;2023-02-10T06:13:37;59.73;;;34.67;;
13959;SDS011;7052;51.050;3.716;2023-02-10T06:16:05;50.80;;;33.87;;
13959;SDS011;7052;51.050;3.716;2023-02-10T06:18:32;53.87;;;34.00;;
13959;SDS011;7052;51.050;3.716;2023-02-10T06:21:00;61.23;;;36.00;;
13959;SDS011;7052;51.050;3.716;2023-02-10T06:23:27;60.07;;;37.13;;
13959;SDS011;7052;51.050;3.716;2023-02-10T06:25:54;61.70;;;38.17;;
13959;SDS011;7052;51.050;3.716;2023-02-10T06:28:24;54.73;;;35.13;;
13959;SDS011;7052;51.050;3.716;2023-02-10T06:30:52;57.43;;;35.43;;
13959;SDS011;7052;51.050;3.716;2023-02-10T06:33:19;58.53;;;37.40;;
13959;SDS011;7052;51.050;3.716;2023-02-10T06:35:46;58.90;;;35.73;;
13959;SDS011;7052;51.050;3.716;2023-02-10T06:38:13;86.67;;;38.93;;
13959;SDS011;7052;51.050;3.716;2023-02-10T06:40:41;64.33;;;36.23;;
13959;SDS011;7052;51.050;3.716;2023-02-10T06:43:09;61.77;;;38.13;;
13959;SDS011;7052;51.050;3.716;2023-02-10T06:45:38;70.07;;;37.47;;
13959;SDS011;7052;51.050;3.716;2023-02-10T06:48:07;73.47;;;38.00;;
13959;SDS011;7052;51.050;3.716;2023-02-10T06:50:35;63.23;;;36.43;;
13959;SDS011;7052;51.050;3.716;2023-02-10T06:53:03;59.17;;;35.60;;
13959;SDS011;7052;51.050;3.716;2023-02-10T06:55:30;58.83;;;35.97;;
13959;SDS011;7052;51.050;3.716;2023-02-10T06:58:01;61.20;;;36.77;;
13959;SDS011;7052;51.050;3.716;2023-02-10T07:00:29;58.23;;;39.23;;
13959;SDS011;7052;51.050;3.716;2023-02-10T07:02:59;57.80;;;36.17;;
13959;SDS011;7052;51.050;3.716;2023-02-10T07:05:29;56.67;;;37.23;;
13959;SDS011;7052;51.050;3.716;2023-02-10T07:08:00;69.38;;;46.88;;
13959;SDS011;7052;51.050;3.716;2023-02-10T07:10:28;63.47;;;40.70;;
13959;SDS011;7052;51.050;3.716;2023-02-10T07:12:56;60.73;;;39.00;;
13959;SDS011;7052;51.050;3.716;2023-02-10T07:15:23;56.73;;;37.67;;
13959;SDS011;7052;51.050;3.716;2023-02-10T07:17:50;67.47;;;40.30;;
13959;SDS011;7052;51.050;3.716;2023-02-10T07:20:19;64.57;;;38.73;;
13959;SDS011;7052;51.050;3.716;2023-02-10T07:22:47;61.47;;;39.83;;
13959;SDS011;7052;51.050;3.716;2023-02-10T07:25:17;60.00;;;40.73;;
13959;SDS011;7052;51.050;3.716;2023-02-10T07:27:46;56.70;;;37.40;;
13959;SDS011;7052;51.050;3.716;2023-02-10T07:30:14;60.40;;;38.43;;
13959;SDS011;7052;51.050;3.716;2023-02-10T07:32:40;61.00;;;39.40;;
13959;SDS011;7052;51.050;3.716;2023-02-10T07:35:09;62.33;;;39.37;;
13959;SDS011;7052;51.050;3.716;2023-02-10T07:37:40;60.50;;;39.13;;
13959;SDS011;7052;51.050;3.716;2023-02-10T07:40:08;60.77;;;38.83;;
13959;SDS011;7052;51.050;3.716;2023-02-10T07:42:35;58.37;;;38.43;;
13959;SDS011;7052;51.050;3.716;2023-02-10T07:45:02;52.73;;;37.07;;
13959;SDS011;7052;51.050;3.716;2023-02-10T07:47:32;59.67;;;37.80;;
13959;SDS011;7052;51.050;3.716;2023-02-10T07:50:00;58.93;;;38.23;;
13959;SDS011;7052;51.050;3.716;2023-02-10T07:52:32;57.37;;;38.03;;
13959;SDS011;7052;51.050;3.716;2023-02-10T07:55:00;60.10;;;38.03;;
13959;SDS011;7052;51.050;3.716;2023-02-10T07:57:29;62.63;;;40.10;;
13959;SDS011;7052;51.050;3.716;2023-02-10T07:59:55;58.00;;;38.47;;
13959;SDS011;7052;51.050;3.716;2023-02-10T08:02:26;59.63;;;37.13;;
13959;SDS011;7052;51.050;3.716;2023-02-10T08:04:53;61.07;;;38.40;;
13959;SDS011;7052;51.050;3.716;2023-02-10T08:07:20;57.67;;;38.33;;
13959;SDS011;7052;51.050;3.716;2023-02-10T08:09:50;57.87;;;37.00;;
13959;SDS011;7052;51.050;3.716;2023-02-10T08:12:18;55.60;;;37.67;;
13959;SDS011;7052;51.050;3.716;2023-02-10T08:14:45;59.73;;;39.27;;
13959;SDS011;7052;51.050;3.716;2023-02-10T08:17:12;60.50;;;38.27;;
13959;SDS011;7052;51.050;3.716;2023-02-10T08:19:40;59.47;;;38.50;;
13959;SDS011;7052;51.050;3.716;2023-02-10T08:22:08;60.43;;;39.90;;
13959;SDS011;7052;51.050;3.716;2023-02-10T08:24:39;55.70;;;37.00;;
13959;SDS011;7052;51.050;3.716;2023-02-10T08:27:06;56.77;;;38.50;;
13959;SDS011;7052;51.050;3.716;2023-02-10T08:29:36;56.60;;;38.30;;
13959;SDS011;7052;51.050;3.716;2023-02-10T08:32:03;61.80;;;39.77;;
13959;SDS011;7052;51.050;3.716;2023-02-10T08:34:30;62.57;;;39.33;;
13959;SDS011;7052;51.050;3.716;2023-02-10T08:36:58;62.20;;;38.60;;
13959;SDS011;7052;51.050;3.716;2023-02-10T08:39:27;58.90;;;38.53;;
13959;SDS011;7052;51.050;3.716;2023-02-10T08:41:54;57.50;;;39.13;;
13959;SDS011;7052;51.050;3.716;2023-02-10T08:44:21;59.20;;;39.47;;
13959;SDS011;7052;51.050;3.716;2023-02-10T08:46:49;62.93;;;37.80;;
13959;SDS011;7052;51.050;3.716;2023-02-10T08:49:17;65.50;;;38.87;;
13959;SDS011;7052;51.050;3.716;2023-02-10T08:51:44;65.40;;;41.03;;
13959;SDS011;7052;51.050;3.716;2023-02-10T08:54:11;59.70;;;38.43;;
13959;SDS011;7052;51.050;3.716;2023-02-10T08:56:38;59.77;;;38.13;;
13959;SDS011;7052;51.050;3.716;2023-02-10T08:59:07;67.13;;;47.15;;
13959;SDS011;7052;51.050;3.716;2023-02-10T09:01:34;60.00;;;41.33;;
13959;SDS011;7052;51.050;3.716;2023-02-10T09:04:03;63.90;;;40.40;;
13959;SDS011;7052;51.050;3.716;2023-02-10T09:06:34;80.00;;;41.33;;
13959;SDS011;7052;51.050;3.716;2023-02-10T09:09:05;75.38;;;43.83;;
13959;SDS011;7052;51.050;3.716;2023-02-10T09:11:32;76.63;;;42.40;;
13959;SDS011;7052;51.050;3.716;2023-02-10T09:13:59;84.37;;;40.73;;
13959;SDS011;7052;51.050;3.716;2023-02-10T09:16:28;80.13;;;41.37;;
13959;SDS011;7052;51.050;3.716;2023-02-10T09:18:55;72.27;;;42.07;;
13959;SDS011;7052;51.050;3.716;2023-02-10T09:21:23;76.43;;;41.07;;
13959;SDS011;7052;51.050;3.716;2023-02-10T09:23:50;71.87;;;38.93;;
13959;SDS011;7052;51.050;3.716;2023-02-10T09:26:18;76.00;;;38.77;;
13959;SDS011;7052;51.050;3.716;2023-02-10T09:28:45;69.17;;;40.60;;
13959;SDS011;7052;51.050;3.716;2023-02-10T09:31:15;69.87;;;39.17;;
13959;SDS011;7052;51.050;3.716;2023-02-10T09:33:43;76.70;;;38.43;;
13959;SDS011;7052;51.050;3.716;2023-02-10T09:36:12;70.70;;;41.13;;
13959;SDS011;7052;51.050;3.716;2023-02-10T09:38:44;69.60;;;39.97;;
13959;SDS011;7052;51.050;3.716;2023-02-10T09:41:13;68.67;;;36.20;;
13959;SDS011;7052;51.050;3.716;2023-02-10T09:43:54;62.27;;;36.77;;
13959;SDS011;7052;51.050;3.716;2023-02-10T09:46:34;80.93;;;37.03;;
13959;SDS011;7052;51.050;3.716;2023-02-10T09:49:31;63.88;;;39.47;;
13959;SDS011;7052;51.050;3.716;2023-02-10T09:52:22;62.97;;;37.27;;
13959;SDS011;7052;51.050;3.716;2023-02-10T09:55:01;63.27;;;37.27;;
13959;SDS011;7052;51.050;3.716;2023-02-10T09:57:35;60.73;;;37.17;;
13959;SDS011;7052;51.050;3.716;2023-02-10T10:00:12;56.77;;;35.73;;
13959;SDS011;7052;51.050;3.716;2023-02-10T10:02:47;64.00;;;35.73;;
13959;SDS011;7052;51.050;3.716;2023-02-10T10:05:22;52.83;;;33.90;;
13959;SDS011;7052;51.050;3.716;2023-02-10T10:07:57;59.10;;;33.77;;
13959;SDS011;7052;51.050;3.716;2023-02-10T10:10:29;56.47;;;35.07;;
13959;SDS011;7052;51.050;3.716;2023-02-10T10:13:01;49.63;;;32.07;;
13959;SDS011;7052;51.050;3.716;2023-02-10T10:15:31;55.47;;;32.60;;
13959;SDS011;7052;51.050;3.716;2023-02-10T10:18:07;52.77;;;33.33;;
13959;SDS011;7052;51.050;3.716;2023-02-10T10:20:45;51.07;;;30.53;;
13959;SDS011;7052;51.050;3.716;2023-02-10T10:23:35;53.60;;;31.47;;
13959;SDS011;7052;51.050;3.716;2023-02-10T10:26:20;56.73;;;32.43;;
13959;SDS011;7052;51.050;3.716;2023-02-10T10:29:10;53.47;;;32.30;;
13959;SDS011;7052;51.050;3.716;2023-02-10T10:31:48;51.70;;;30.57;;
13959;SDS011;7052;51.050;3.716;2023-02-10T10:34:23;51.17;;;29.50;;
13959;SDS011;7052;51.050;3.716;2023-02-10T10:36:55;56.93;;;32.00;;
13959;SDS011;7052;51.050;3.716;2023-02-10T10:39:29;56.23;;;31.67;;
13959;SDS011;7052;51.050;3.716;2023-02-10T10:42:06;49.80;;;28.73;;
13959;SDS011;7052;51.050;3.716;2023-02-10T10:44:43;50.80;;;30.27;;
13959;SDS011;7052;51.050;3.716;2023-02-10T10:47:12;46.47;;;28.63;;
13959;SDS011;7052;51.050;3.716;2023-02-10T10:49:42;48.67;;;29.07;;
13959;SDS011;7052;51.050;3.716;2023-02-10T10:52:24;53.93;;;33.23;;
13959;SDS011;7052;51.050;3.716;2023-02-10T10:54:54;52.47;;;29.70;;
13959;SDS011;7052;51.050;3.716;2023-02-10T10:57:22;52.80;;;32.00;;
13959;SDS011;7052;51.050;3.716;2023-02-10T10:59:52;49.87;;;30.10;;
13959;SDS011;7052;51.050;3.716;2023-02-10T11:02:24;52.93;;;30.00;;
13959;SDS011;7052;51.050;3.716;2023-02-10T11:05:01;48.10;;;29.63;;
13959;SDS011;7052;51.050;3.716;2023-02-10T11:07:31;50.27;;;31.13;;
13959;SDS011;7052;51.050;3.716;2023-02-10T11:09:59;45.10;;;26.90;;
13959;SDS011;7052;51.050;3.716;2023-02-10T11:12:29;49.47;;;29.03;;
13959;SDS011;7052;51.050;3.716;2023-02-10T11:14:58;45.43;;;28.90;;
13959;SDS011;7052;51.050;3.716;2023-02-10T11:17:30;48.23;;;27.83;;
13959;SDS011;7052;51.050;3.716;2023-02-10T11:20:02;47.90;;;29.40;;
13959;SDS011;7052;51.050;3.716;2023-02-10T11:22:30;45.43;;;28.63;;
13959;SDS011;7052;51.050;3.716;2023-02-10T11:25:00;43.70;;;27.23;;
13959;SDS011;7052;51.050;3.716;2023-02-10T11:27:34;47.93;;;28.10;;
13959;SDS011;7052;51.050;3.716;2023-02-10T11:30:01;52.23;;;28.73;;
13959;SDS011;7052;51.050;3.716;2023-02-10T11:32:34;45.13;;;28.10;;
13959;SDS011;7052;51.050;3.716;2023-02-10T11:35:04;44.30;;;28.00;;
13959;SDS011;7052;51.050;3.716;2023-02-10T11:37:44;45.63;;;26.10;;
13959;SDS011;7052;51.050;3.716;2023-02-10T11:40:19;41.50;;;25.23;;
13959;SDS011;7052;51.050;3.716;2023-02-10T11:42:50;40.63;;;25.00;;
13959;SDS011;7052;51.050;3.716;2023-02-10T11:45:19;40.53;;;23.97;;
13959;SDS011;7052;51.050;3.716;2023-02-10T11:47:58;38.30;;;22.60;;
13959;SDS011;7052;51.050;3.716;2023-02-10T11:50:29;36.50;;;22.40;;
13959;SDS011;7052;51.050;3.716;2023-02-10T11:52:58;40.27;;;24.70;;
13959;SDS011;7052;51.050;3.716;2023-02-10T11:55:31;45.37;;;24.63;;
13959;SDS011;7052;51.050;3.716;2023-02-10T11:58:14;40.30;;;23.70;;
13959;SDS011;7052;51.050;3.716;2023-02-10T12:01:31;39.37;;;22.80;;
13959;SDS011;7052;51.050;3.716;2023-02-10T12:04:21;43.90;;;24.63;;
13959;SDS011;7052;51.050;3.716;2023-02-10T12:07:16;41.87;;;24.33;;
13959;SDS011;7052;51.050;3.716;2023-02-10T12:09:52;43.87;;;24.73;;
13959;SDS011;7052;51.050;3.716;2023-02-10T12:12:27;44.40;;;25.50;;
13959;SDS011;7052;51.050;3.716;2023-02-10T12:15:03;43.30;;;25.03;;
13959;SDS011;7052;51.050;3.716;2023-02-10T12:17:41;42.37;;;23.80;;
13959;SDS011;7052;51.050;3.716;2023-02-10T12:20:22;38.67;;;23.63;;
13959;SDS011;7052;51.050;3.716;2023-02-10T12:23:13;37.57;;;23.70;;
13959;SDS011;7052;51.050;3.716;2023-02-10T12:25:56;42.67;;;24.40;;
13959;SDS011;7052;51.050;3.716;2023-02-10T12:28:33;41.10;;;24.53;;
13959;SDS011;7052;51.050;3.716;2023-02-10T12:31:17;42.40;;;25.27;;
13959;SDS011;7052;51.050;3.716;2023-02-10T12:33:57;40.60;;;23.60;;
13959;SDS011;7052;51.050;3.716;2023-02-10T12:36:36;40.53;;;24.20;;
13959;SDS011;7052;51.050;3.716;2023-02-10T12:39:17;41.87;;;23.90;;
13959;SDS011;7052;51.050;3.716;2023-02-10T12:41:52;43.70;;;26.27;;
13959;SDS011;7052;51.050;3.716;2023-02-10T12:44:34;42.70;;;24.53;;
13959;SDS011;7052;51.050;3.716;2023-02-10T12:47:17;44.73;;;26.40;;
13959;SDS011;7052;51.050;3.716;2023-02-10T12:49:55;45.27;;;26.77;;
13959;SDS011;7052;51.050;3.716;2023-02-10T12:52:29;47.30;;;27.43;;
13959;SDS011;7052;51.050;3.716;2023-02-10T12:55:02;45.97;;;28.67;;
13959;SDS011;7052;51.050;3.716;2023-02-10T12:57:41;48.43;;;27.67;;
13959;SDS011;7052;51.050;3.716;2023-02-10T13:00:15;46.73;;;26.30;;
13959;SDS011;7052;51.050;3.716;2023-02-10T13:02:52;43.67;;;26.20;;
13959;SDS011;7052;51.050;3.716;2023-02-10T13:05:25;41.47;;;24.90;;
13959;SDS011;7052;51.050;3.716;2023-02-10T13:08:00;40.33;;;25.37;;
13959;SDS011;7052;51.050;3.716;2023-02-10T13:10:31;39.63;;;25.17;;
13959;SDS011;7052;51.050;3.716;2023-02-10T13:13:12;42.43;;;25.37;;
13959;SDS011;7052;51.050;3.716;2023-02-10T13:15:45;40.07;;;24.57;;
13959;SDS011;7052;51.050;3.716;2023-02-10T13:18:25;40.80;;;25.40;;
13959;SDS011;7052;51.050;3.716;2023-02-10T13:20:58;37.17;;;23.97;;
13959;SDS011;7052;51.050;3.716;2023-02-10T13:23:36;40.60;;;25.57;;
13959;SDS011;7052;51.050;3.716;2023-02-10T13:26:16;41.33;;;25.83;;
13959;SDS011;7052;51.050;3.716;2023-02-10T13:29:00;39.60;;;24.87;;
13959;SDS011;7052;51.050;3.716;2023-02-10T13:31:40;40.67;;;25.27;;
13959;SDS011;7052;51.050;3.716;2023-02-10T13:34:23;40.87;;;25.50;;
13959;SDS011;7052;51.050;3.716;2023-02-10T13:36:55;40.17;;;26.17;;
13959;SDS011;7052;51.050;3.716;2023-02-10T13:39:26;43.03;;;25.97;;
13959;SDS011;7052;51.050;3.716;2023-02-10T13:42:03;42.10;;;26.70;;
13959;SDS011;7052;51.050;3.716;2023-02-10T13:44:37;39.97;;;24.90;;
13959;SDS011;7052;51.050;3.716;2023-02-10T13:47:11;37.77;;;24.37;;
13959;SDS011;7052;51.050;3.716;2023-02-10T13:50:00;40.20;;;24.87;;
13959;SDS011;7052;51.050;3.716;2023-02-10T13:52:31;37.13;;;23.90;;
13959;SDS011;7052;51.050;3.716;2023-02-10T13:55:03;37.03;;;23.87;;
13959;SDS011;7052;51.050;3.716;2023-02-10T13:57:51;36.50;;;22.87;;
13959;SDS011;7052;51.050;3.716;2023-02-10T14:00:21;38.47;;;24.00;;
13959;SDS011;7052;51.050;3.716;2023-02-10T14:02:59;36.50;;;23.37;;
13959;SDS011;7052;51.050;3.716;2023-02-10T14:05:30;37.00;;;24.40;;
13959;SDS011;7052;51.050;3.716;2023-02-10T14:07:58;40.20;;;25.30;;
13959;SDS011;7052;51.050;3.716;2023-02-10T14:10:27;38.37;;;24.83;;
13959;SDS011;7052;51.050;3.716;2023-02-10T14:13:02;39.47;;;24.60;;
13959;SDS011;7052;51.050;3.716;2023-02-10T14:15:53;40.17;;;24.53;;
13959;SDS011;7052;51.050;3.716;2023-02-10T14:18:23;35.83;;;24.07;;
13959;SDS011;7052;51.050;3.716;2023-02-10T14:20:57;36.47;;;25.30;;
13959;SDS011;7052;51.050;3.716;2023-02-10T14:23:26;35.50;;;23.33;;
13959;SDS011;7052;51.050;3.716;2023-02-10T14:25:57;35.80;;;23.50;;
13959;SDS011;7052;51.050;3.716;2023-02-10T14:28:25;36.83;;;23.70;;
13959;SDS011;7052;51.050;3.716;2023-02-10T14:30:56;32.10;;;23.17;;
13959;SDS011;7052;51.050;3.716;2023-02-10T14:33:28;35.47;;;23.43;;
13959;SDS011;7052;51.050;3.716;2023-02-10T14:35:58;28.83;;;21.73;;
13959;SDS011;7052;51.050;3.716;2023-02-10T14:38:29;32.40;;;23.40;;
13959;SDS011;7052;51.050;3.716;2023-02-10T14:40:58;34.50;;;22.77;;
13959;SDS011;7052;51.050;3.716;2023-02-10T14:43:28;39.23;;;25.10;;
13959;SDS011;7052;51.050;3.716;2023-02-10T14:45:56;29.20;;;20.77;;
13959;SDS011;7052;51.050;3.716;2023-02-10T14:48:24;31.60;;;21.60;;
13959;SDS011;7052;51.050;3.716;2023-02-10T14:53:46;30.50;;;20.47;;
13959;SDS011;7052;51.050;3.716;2023-02-10T14:56:18;30.57;;;20.70;;
13959;SDS011;7052;51.050;3.716;2023-02-10T14:58:48;29.87;;;20.87;;
13959;SDS011;7052;51.050;3.716;2023-02-10T15:01:21;30.47;;;21.20;;
13959;SDS011;7052;51.050;3.716;2023-02-10T15:03:51;29.97;;;20.70;;
13959;SDS011;7052;51.050;3.716;2023-02-10T15:06:21;33.30;;;20.43;;
13959;SDS011;7052;51.050;3.716;2023-02-10T15:08:50;28.13;;;20.37;;
13959;SDS011;7052;51.050;3.716;2023-02-10T15:11:21;28.30;;;20.37;;
13959;SDS011;7052;51.050;3.716;2023-02-10T15:14:11;27.43;;;20.33;;